Tudo Por Deus — CUHB8 — position and weather

sailwx.info

Track history (hours):
 
Tides and Currents Weather Stations Pressure Air Temp Water Temp Dewpoint Dewpoint Depression Visibility Wind Speed Wind Dir Waves Ship Positions

Tudo Por Deus

Last reported at 2018-Jun-18 16:06 UTC. Time now 2018-Jun-18 19:32 UTC.
Position N 39°10' W 009°24'.

Length 21 m.

Type: Fishing. MMSI: 263414960.

Date/timePositionNaut miles runAvg speedWind from/ knotsBaromVisibWave heightAir tempDewpointWater temp
2018-Jun-18 16:06N 39°10' W 009°24'1 9.5
2018-Jun-18 15:58N 39°11' W 009°24'2 3.8
2018-Jun-18 15:30N 39°13' W 009°25'1 1.3
2018-Jun-18 14:44N 39°13' W 009°24'3 7.1
2018-Jun-18 14:21N 39°10' W 009°24'  
2018-Jun-15 18:52N 39°11' W 009°24'0 0.0
2018-Jun-15 15:30N 39°11' W 009°24'5 0.3
2018-Jun-14 21:11N 39°07' W 009°28'0 0.5
2018-Jun-14 21:00N 39°07' W 009°28'0 0.6
2018-Jun-14 20:24N 39°07' W 009°28'1 1.3
2018-Jun-14 19:59N 39°08' W 009°27'3 4.3
2018-Jun-14 19:24N 39°09' W 009°24'0 0.1
2018-Jun-14 18:59N 39°09' W 009°24'0 0.1
2018-Jun-14 18:24N 39°09' W 009°24'0 0.2
2018-Jun-14 17:57N 39°09' W 009°24'2 0.1
2018-Jun-13 21:03N 39°07' W 009°26'0 0.9
2018-Jun-13 21:01N 39°08' W 009°26'0 0.6
2018-Jun-13 20:24N 39°08' W 009°26'1 2.3
2018-Jun-13 20:00N 39°09' W 009°26'0 0.8
2018-Jun-13 19:30N 39°09' W 009°26'0 0.8
2018-Jun-13 19:00N 39°09' W 009°26'2 0.3
2018-Jun-13 14:04N 39°10' W 009°24'1 0.1
2018-Jun-12 21:28N 39°12' W 009°24'0 0.3
2018-Jun-12 20:59N 39°11' W 009°24'0 0.3
2018-Jun-12 20:20N 39°12' W 009°24'3 5.5
2018-Jun-12 19:44N 39°10' W 009°28'1 6.0
2018-Jun-12 19:30N 39°09' W 009°28'5 7.2
2018-Jun-12 18:52N 39°13' W 009°25'1 0.2
2018-Jun-12 14:04N 39°12' W 009°26'0 1.4
2018-Jun-12 13:51N 39°12' W 009°26'1 0.1
2018-Jun-11 15:04N 39°14' W 009°27'0 0.5
2018-Jun-11 14:58N 39°14' W 009°27'0 0.3
2018-Jun-11 14:30N 39°14' W 009°27'2 2.9
2018-Jun-11 13:49N 39°12' W 009°25'  
Track history (hours):
 
Tides and Currents Weather Stations Pressure Air Temp Water Temp Dewpoint Dewpoint Depression Visibility Wind Speed Wind Dir Waves Ship Positions

Tudo Por Deus

Last reported at 2018-Jun-18 16:06 UTC. Time now 2018-Jun-18 19:32 UTC.
Position N 39°10' W 009°24'.

Length 21 m.

Type: Fishing. MMSI: 263414960.

Date/timePositionNaut miles runAvg speedWind from/ knotsBaromVisibWave heightAir tempDewpointWater temp
2018-Jun-18 16:06N 39°10' W 009°24'1 9.5
2018-Jun-18 15:58N 39°11' W 009°24'2 3.8
2018-Jun-18 15:30N 39°13' W 009°25'1 1.3
2018-Jun-18 14:44N 39°13' W 009°24'3 7.1
2018-Jun-18 14:21N 39°10' W 009°24'  
2018-Jun-15 18:52N 39°11' W 009°24'0 0.0
2018-Jun-15 15:30N 39°11' W 009°24'5 0.3
2018-Jun-14 21:11N 39°07' W 009°28'0 0.5
2018-Jun-14 21:00N 39°07' W 009°28'0 0.6
2018-Jun-14 20:24N 39°07' W 009°28'1 1.3
2018-Jun-14 19:59N 39°08' W 009°27'3 4.3
2018-Jun-14 19:24N 39°09' W 009°24'0 0.1
2018-Jun-14 18:59N 39°09' W 009°24'0 0.1
2018-Jun-14 18:24N 39°09' W 009°24'0 0.2
2018-Jun-14 17:57N 39°09' W 009°24'2 0.1
2018-Jun-13 21:03N 39°07' W 009°26'0 0.9
2018-Jun-13 21:01N 39°08' W 009°26'0 0.6
2018-Jun-13 20:24N 39°08' W 009°26'1 2.3
2018-Jun-13 20:00N 39°09' W 009°26'0 0.8
2018-Jun-13 19:30N 39°09' W 009°26'0 0.8
2018-Jun-13 19:00N 39°09' W 009°26'2 0.3
2018-Jun-13 14:04N 39°10' W 009°24'1 0.1
2018-Jun-12 21:28N 39°12' W 009°24'0 0.3
2018-Jun-12 20:59N 39°11' W 009°24'0 0.3
2018-Jun-12 20:20N 39°12' W 009°24'3 5.5
2018-Jun-12 19:44N 39°10' W 009°28'1 6.0
2018-Jun-12 19:30N 39°09' W 009°28'5 7.2
2018-Jun-12 18:52N 39°13' W 009°25'1 0.2
2018-Jun-12 14:04N 39°12' W 009°26'0 1.4
2018-Jun-12 13:51N 39°12' W 009°26'1 0.1
2018-Jun-11 15:04N 39°14' W 009°27'0 0.5
2018-Jun-11 14:58N 39°14' W 009°27'0 0.3
2018-Jun-11 14:30N 39°14' W 009°27'2 2.9
2018-Jun-11 13:49N 39°12' W 009°25'  

Dump ship's entire track history